sensor_id;sensor_type;location;lat;lon;timestamp;temperature;humidity
64484;DHT22;50862;51.642;7.964;2022-08-02T00:01:43;16.00;99.90
64484;DHT22;50862;51.642;7.964;2022-08-02T00:04:11;15.60;99.90
64484;DHT22;50862;51.642;7.964;2022-08-02T00:06:39;15.80;99.90
64484;DHT22;50862;51.642;7.964;2022-08-02T00:09:08;15.60;99.90
64484;DHT22;50862;51.642;7.964;2022-08-02T00:11:37;15.30;99.90
64484;DHT22;50862;51.642;7.964;2022-08-02T00:14:09;15.60;99.90
64484;DHT22;50862;51.642;7.964;2022-08-02T00:16:37;15.40;99.90
64484;DHT22;50862;51.642;7.964;2022-08-02T00:21:33;15.30;99.90
64484;DHT22;50862;51.642;7.964;2022-08-02T00:24:02;15.70;99.90
64484;DHT22;50862;51.642;7.964;2022-08-02T00:26:52;15.30;99.90
64484;DHT22;50862;51.642;7.964;2022-08-02T00:31:48;15.50;99.90
64484;DHT22;50862;51.642;7.964;2022-08-02T00:34:16;15.40;99.90
64484;DHT22;50862;51.642;7.964;2022-08-02T00:42:03;15.60;99.90
64484;DHT22;50862;51.642;7.964;2022-08-02T00:44:31;15.70;99.90
64484;DHT22;50862;51.642;7.964;2022-08-02T00:46:59;15.00;99.90
64484;DHT22;50862;51.642;7.964;2022-08-02T00:49:27;15.50;99.90
64484;DHT22;50862;51.642;7.964;2022-08-02T00:54:26;14.70;99.90
64484;DHT22;50862;51.642;7.964;2022-08-02T00:56:55;15.70;99.90
64484;DHT22;50862;51.642;7.964;2022-08-02T00:59:24;15.80;99.90
64484;DHT22;50862;51.642;7.964;2022-08-02T01:04:25;15.10;99.90
64484;DHT22;50862;51.642;7.964;2022-08-02T01:06:58;14.80;99.90
64484;DHT22;50862;51.642;7.964;2022-08-02T01:09:27;14.90;99.90
64484;DHT22;50862;51.642;7.964;2022-08-02T01:14:30;14.90;99.90
64484;DHT22;50862;51.642;7.964;2022-08-02T01:17:02;14.80;99.90
64484;DHT22;50862;51.642;7.964;2022-08-02T01:19:39;14.70;99.90
64484;DHT22;50862;51.642;7.964;2022-08-02T01:22:31;14.70;99.90
64484;DHT22;50862;51.642;7.964;2022-08-02T01:25:49;15.10;99.90
64484;DHT22;50862;51.642;7.964;2022-08-02T01:28:32;14.80;99.90
64484;DHT22;50862;51.642;7.964;2022-08-02T01:31:07;14.20;99.90
64484;DHT22;50862;51.642;7.964;2022-08-02T01:33:42;15.40;99.90
64484;DHT22;50862;51.642;7.964;2022-08-02T01:36:13;15.80;99.90
64484;DHT22;50862;51.642;7.964;2022-08-02T01:38:46;14.60;99.90
64484;DHT22;50862;51.642;7.964;2022-08-02T01:41:17;14.70;99.90
64484;DHT22;50862;51.642;7.964;2022-08-02T01:43:50;14.80;99.90
64484;DHT22;50862;51.642;7.964;2022-08-02T01:46:19;14.40;99.90
64484;DHT22;50862;51.642;7.964;2022-08-02T01:48:48;14.80;99.90
64484;DHT22;50862;51.642;7.964;2022-08-02T01:51:19;14.70;99.90
64484;DHT22;50862;51.642;7.964;2022-08-02T01:54:11;14.20;99.90
64484;DHT22;50862;51.642;7.964;2022-08-02T01:56:40;14.00;99.90
64484;DHT22;50862;51.642;7.964;2022-08-02T01:59:15;14.20;99.90
64484;DHT22;50862;51.642;7.964;2022-08-02T02:01:46;14.80;99.90
64484;DHT22;50862;51.642;7.964;2022-08-02T02:04:16;14.80;99.90
64484;DHT22;50862;51.642;7.964;2022-08-02T02:06:45;14.20;99.90
64484;DHT22;50862;51.642;7.964;2022-08-02T02:09:15;14.20;99.90
64484;DHT22;50862;51.642;7.964;2022-08-02T02:11:45;14.40;99.90
64484;DHT22;50862;51.642;7.964;2022-08-02T02:14:36;14.00;99.90
64484;DHT22;50862;51.642;7.964;2022-08-02T02:17:05;14.80;99.90
64484;DHT22;50862;51.642;7.964;2022-08-02T02:19:56;14.30;99.90
64484;DHT22;50862;51.642;7.964;2022-08-02T02:22:25;14.30;99.90
64484;DHT22;50862;51.642;7.964;2022-08-02T02:24:53;14.10;99.90
64484;DHT22;50862;51.642;7.964;2022-08-02T02:29:52;14.10;99.90
64484;DHT22;50862;51.642;7.964;2022-08-02T02:32:24;14.00;99.90
64484;DHT22;50862;51.642;7.964;2022-08-02T02:34:55;14.10;99.90
64484;DHT22;50862;51.642;7.964;2022-08-02T02:37:27;13.60;99.90
64484;DHT22;50862;51.642;7.964;2022-08-02T02:39:56;14.40;99.90
64484;DHT22;50862;51.642;7.964;2022-08-02T02:42:27;13.80;99.90
64484;DHT22;50862;51.642;7.964;2022-08-02T02:44:59;13.90;99.90
64484;DHT22;50862;51.642;7.964;2022-08-02T02:47:28;13.80;99.90
64484;DHT22;50862;51.642;7.964;2022-08-02T02:50:08;13.80;99.90
64484;DHT22;50862;51.642;7.964;2022-08-02T02:52:37;14.50;99.90
64484;DHT22;50862;51.642;7.964;2022-08-02T02:55:08;14.30;99.90
64484;DHT22;50862;51.642;7.964;2022-08-02T02:57:37;14.10;99.90
64484;DHT22;50862;51.642;7.964;2022-08-02T03:00:09;13.80;99.90
64484;DHT22;50862;51.642;7.964;2022-08-02T03:02:39;14.40;99.90
64484;DHT22;50862;51.642;7.964;2022-08-02T03:05:09;13.70;99.90
64484;DHT22;50862;51.642;7.964;2022-08-02T03:07:38;13.80;99.90
64484;DHT22;50862;51.642;7.964;2022-08-02T03:10:08;13.60;99.90
64484;DHT22;50862;51.642;7.964;2022-08-02T03:15:07;14.30;99.90
64484;DHT22;50862;51.642;7.964;2022-08-02T03:17:41;14.70;99.90
64484;DHT22;50862;51.642;7.964;2022-08-02T03:20:11;13.60;99.90
64484;DHT22;50862;51.642;7.964;2022-08-02T03:22:41;13.60;99.90
64484;DHT22;50862;51.642;7.964;2022-08-02T03:25:10;14.10;99.90
64484;DHT22;50862;51.642;7.964;2022-08-02T03:27:38;13.50;99.90
64484;DHT22;50862;51.642;7.964;2022-08-02T03:30:10;13.60;99.90
64484;DHT22;50862;51.642;7.964;2022-08-02T03:32:41;13.00;99.90
64484;DHT22;50862;51.642;7.964;2022-08-02T03:35:13;14.20;99.90
64484;DHT22;50862;51.642;7.964;2022-08-02T03:37:50;13.70;99.90
64484;DHT22;50862;51.642;7.964;2022-08-02T03:40:19;12.60;99.90
64484;DHT22;50862;51.642;7.964;2022-08-02T03:42:48;13.00;99.90
64484;DHT22;50862;51.642;7.964;2022-08-02T03:45:19;13.80;99.90
64484;DHT22;50862;51.642;7.964;2022-08-02T03:47:47;12.90;99.90
64484;DHT22;50862;51.642;7.964;2022-08-02T03:50:16;12.90;99.90
64484;DHT22;50862;51.642;7.964;2022-08-02T03:55:13;12.90;99.90
64484;DHT22;50862;51.642;7.964;2022-08-02T03:57:42;13.10;99.90
64484;DHT22;50862;51.642;7.964;2022-08-02T04:00:13;13.90;99.90
64484;DHT22;50862;51.642;7.964;2022-08-02T04:02:46;13.10;99.90
64484;DHT22;50862;51.642;7.964;2022-08-02T04:05:15;13.30;99.90
64484;DHT22;50862;51.642;7.964;2022-08-02T04:07:44;13.20;99.90
64484;DHT22;50862;51.642;7.964;2022-08-02T04:10:33;13.40;99.90
64484;DHT22;50862;51.642;7.964;2022-08-02T04:13:26;13.30;99.90
64484;DHT22;50862;51.642;7.964;2022-08-02T04:16:05;13.40;99.90
64484;DHT22;50862;51.642;7.964;2022-08-02T04:18:41;13.20;99.90
64484;DHT22;50862;51.642;7.964;2022-08-02T04:21:13;13.60;99.90
64484;DHT22;50862;51.642;7.964;2022-08-02T04:23:45;12.90;99.90
64484;DHT22;50862;51.642;7.964;2022-08-02T04:26:15;13.40;99.90
64484;DHT22;50862;51.642;7.964;2022-08-02T04:28:44;13.70;99.90
64484;DHT22;50862;51.642;7.964;2022-08-02T04:31:14;13.50;99.90
64484;DHT22;50862;51.642;7.964;2022-08-02T04:33:44;12.30;99.90
64484;DHT22;50862;51.642;7.964;2022-08-02T04:36:14;14.10;99.90
64484;DHT22;50862;51.642;7.964;2022-08-02T04:38:57;13.20;99.90
64484;DHT22;50862;51.642;7.964;2022-08-02T04:41:39;13.60;99.90
64484;DHT22;50862;51.642;7.964;2022-08-02T04:44:10;13.80;99.90
64484;DHT22;50862;51.642;7.964;2022-08-02T04:46:39;13.60;99.90
64484;DHT22;50862;51.642;7.964;2022-08-02T04:49:10;13.70;99.90
64484;DHT22;50862;51.642;7.964;2022-08-02T04:51:40;13.40;99.90
64484;DHT22;50862;51.642;7.964;2022-08-02T04:54:09;13.60;99.90
64484;DHT22;50862;51.642;7.964;2022-08-02T04:56:38;13.70;99.90
64484;DHT22;50862;51.642;7.964;2022-08-02T05:04:05;14.00;99.90
64484;DHT22;50862;51.642;7.964;2022-08-02T05:06:34;13.90;99.90
64484;DHT22;50862;51.642;7.964;2022-08-02T05:09:03;14.10;99.90
64484;DHT22;50862;51.642;7.964;2022-08-02T05:14:03;14.40;99.90
64484;DHT22;50862;51.642;7.964;2022-08-02T05:19:00;14.20;99.90
64484;DHT22;50862;51.642;7.964;2022-08-02T05:23:59;14.90;99.90
64484;DHT22;50862;51.642;7.964;2022-08-02T05:26:27;15.70;99.90
64484;DHT22;50862;51.642;7.964;2022-08-02T05:28:56;15.00;99.90
64484;DHT22;50862;51.642;7.964;2022-08-02T05:31:24;14.10;99.90
64484;DHT22;50862;51.642;7.964;2022-08-02T05:33:52;14.90;99.90
64484;DHT22;50862;51.642;7.964;2022-08-02T05:38:49;14.90;99.90
64484;DHT22;50862;51.642;7.964;2022-08-02T05:41:26;15.30;99.90
64484;DHT22;50862;51.642;7.964;2022-08-02T05:43:55;15.40;99.90
64484;DHT22;50862;51.642;7.964;2022-08-02T05:46:23;15.90;99.90
64484;DHT22;50862;51.642;7.964;2022-08-02T05:48:51;15.10;99.90
64484;DHT22;50862;51.642;7.964;2022-08-02T05:51:22;15.80;99.90
64484;DHT22;50862;51.642;7.964;2022-08-02T05:53:53;16.00;99.90
64484;DHT22;50862;51.642;7.964;2022-08-02T05:56:32;15.90;99.90
64484;DHT22;50862;51.642;7.964;2022-08-02T05:59:03;16.10;99.90
64484;DHT22;50862;51.642;7.964;2022-08-02T06:01:33;16.60;99.90
64484;DHT22;50862;51.642;7.964;2022-08-02T06:04:05;16.70;99.90
64484;DHT22;50862;51.642;7.964;2022-08-02T06:06:34;16.90;99.90
64484;DHT22;50862;51.642;7.964;2022-08-02T06:09:08;17.10;99.90
64484;DHT22;50862;51.642;7.964;2022-08-02T06:11:46;16.80;99.90
64484;DHT22;50862;51.642;7.964;2022-08-02T06:14:30;17.10;99.90
64484;DHT22;50862;51.642;7.964;2022-08-02T06:17:01;17.20;99.90
64484;DHT22;50862;51.642;7.964;2022-08-02T06:19:31;17.50;99.90
64484;DHT22;50862;51.642;7.964;2022-08-02T06:22:18;17.20;99.90
64484;DHT22;50862;51.642;7.964;2022-08-02T06:25:06;17.60;99.90
64484;DHT22;50862;51.642;7.964;2022-08-02T06:27:56;17.50;99.90
64484;DHT22;50862;51.642;7.964;2022-08-02T06:30:25;17.30;99.90
64484;DHT22;50862;51.642;7.964;2022-08-02T06:35:24;18.40;99.90
64484;DHT22;50862;51.642;7.964;2022-08-02T06:37:57;17.80;99.90
64484;DHT22;50862;51.642;7.964;2022-08-02T06:40:30;18.40;99.90
64484;DHT22;50862;51.642;7.964;2022-08-02T06:43:15;18.70;99.90
64484;DHT22;50862;51.642;7.964;2022-08-02T06:45:45;18.60;99.90
64484;DHT22;50862;51.642;7.964;2022-08-02T06:48:13;18.80;99.90
64484;DHT22;50862;51.642;7.964;2022-08-02T06:50:41;18.80;99.90
64484;DHT22;50862;51.642;7.964;2022-08-02T06:53:10;18.80;99.90
64484;DHT22;50862;51.642;7.964;2022-08-02T06:55:39;18.80;99.90
64484;DHT22;50862;51.642;7.964;2022-08-02T06:58:11;19.20;99.90
64484;DHT22;50862;51.642;7.964;2022-08-02T07:00:41;19.00;99.90
64484;DHT22;50862;51.642;7.964;2022-08-02T07:03:09;18.70;99.90
64484;DHT22;50862;51.642;7.964;2022-08-02T07:05:37;20.20;99.90
64484;DHT22;50862;51.642;7.964;2022-08-02T07:08:07;20.80;99.90
64484;DHT22;50862;51.642;7.964;2022-08-02T07:10:35;19.80;99.90
64484;DHT22;50862;51.642;7.964;2022-08-02T07:13:03;19.90;99.90
64484;DHT22;50862;51.642;7.964;2022-08-02T07:15:32;19.90;99.90
64484;DHT22;50862;51.642;7.964;2022-08-02T07:18:01;20.50;99.90
64484;DHT22;50862;51.642;7.964;2022-08-02T07:20:29;20.20;99.90
64484;DHT22;50862;51.642;7.964;2022-08-02T07:22:57;20.20;99.90
64484;DHT22;50862;51.642;7.964;2022-08-02T07:25:25;20.70;99.90
64484;DHT22;50862;51.642;7.964;2022-08-02T07:28:14;20.60;99.90
64484;DHT22;50862;51.642;7.964;2022-08-02T07:30:51;20.90;99.90
64484;DHT22;50862;51.642;7.964;2022-08-02T07:33:19;21.00;99.90
64484;DHT22;50862;51.642;7.964;2022-08-02T07:36:05;21.50;99.90
64484;DHT22;50862;51.642;7.964;2022-08-02T07:38:42;22.50;99.90
64484;DHT22;50862;51.642;7.964;2022-08-02T07:41:11;22.70;99.90
64484;DHT22;50862;51.642;7.964;2022-08-02T07:43:39;23.10;99.90
64484;DHT22;50862;51.642;7.964;2022-08-02T07:46:09;23.50;99.90
64484;DHT22;50862;51.642;7.964;2022-08-02T07:48:37;23.90;98.50
64484;DHT22;50862;51.642;7.964;2022-08-02T07:51:05;24.20;96.70
64484;DHT22;50862;51.642;7.964;2022-08-02T07:53:33;24.50;93.20
64484;DHT22;50862;51.642;7.964;2022-08-02T07:56:17;24.40;94.50
64484;DHT22;50862;51.642;7.964;2022-08-02T07:58:45;24.60;92.10
64484;DHT22;50862;51.642;7.964;2022-08-02T08:01:15;24.80;90.00
64484;DHT22;50862;51.642;7.964;2022-08-02T08:03:43;24.80;90.00
64484;DHT22;50862;51.642;7.964;2022-08-02T08:06:11;25.00;89.00
64484;DHT22;50862;51.642;7.964;2022-08-02T08:08:42;25.10;84.70
64484;DHT22;50862;51.642;7.964;2022-08-02T08:11:10;25.00;78.40
64484;DHT22;50862;51.642;7.964;2022-08-02T08:13:38;25.10;81.50
64484;DHT22;50862;51.642;7.964;2022-08-02T08:16:06;25.60;82.20
64484;DHT22;50862;51.642;7.964;2022-08-02T08:18:36;25.70;78.70
64484;DHT22;50862;51.642;7.964;2022-08-02T08:21:04;26.00;79.30
64484;DHT22;50862;51.642;7.964;2022-08-02T08:23:32;26.30;75.70
64484;DHT22;50862;51.642;7.964;2022-08-02T08:26:01;26.70;75.30
64484;DHT22;50862;51.642;7.964;2022-08-02T08:28:29;26.70;73.20
64484;DHT22;50862;51.642;7.964;2022-08-02T08:30:58;26.90;68.40
64484;DHT22;50862;51.642;7.964;2022-08-02T08:33:26;27.30;69.60
64484;DHT22;50862;51.642;7.964;2022-08-02T08:35:55;27.30;68.10
64484;DHT22;50862;51.642;7.964;2022-08-02T08:38:23;26.90;66.50
64484;DHT22;50862;51.642;7.964;2022-08-02T08:40:54;26.50;67.10
64484;DHT22;50862;51.642;7.964;2022-08-02T08:43:22;26.40;64.70
64484;DHT22;50862;51.642;7.964;2022-08-02T08:45:50;26.10;64.40
64484;DHT22;50862;51.642;7.964;2022-08-02T08:48:23;26.10;62.90
64484;DHT22;50862;51.642;7.964;2022-08-02T08:51:01;26.30;62.80
64484;DHT22;50862;51.642;7.964;2022-08-02T08:53:38;26.70;62.30
64484;DHT22;50862;51.642;7.964;2022-08-02T08:56:09;26.80;59.30
64484;DHT22;50862;51.642;7.964;2022-08-02T08:58:42;26.70;60.90
64484;DHT22;50862;51.642;7.964;2022-08-02T09:01:12;26.60;62.30
64484;DHT22;50862;51.642;7.964;2022-08-02T09:03:41;26.70;60.70
64484;DHT22;50862;51.642;7.964;2022-08-02T09:06:10;26.70;57.80
64484;DHT22;50862;51.642;7.964;2022-08-02T09:08:39;26.70;55.80
64484;DHT22;50862;51.642;7.964;2022-08-02T09:11:13;26.60;62.00
64484;DHT22;50862;51.642;7.964;2022-08-02T09:13:49;26.80;57.70
64484;DHT22;50862;51.642;7.964;2022-08-02T09:16:31;26.80;58.90
64484;DHT22;50862;51.642;7.964;2022-08-02T09:19:00;26.90;58.40
64484;DHT22;50862;51.642;7.964;2022-08-02T09:21:36;26.80;59.70
64484;DHT22;50862;51.642;7.964;2022-08-02T09:24:15;26.90;59.70
64484;DHT22;50862;51.642;7.964;2022-08-02T09:26:44;27.10;57.90
64484;DHT22;50862;51.642;7.964;2022-08-02T09:29:13;27.00;56.30
64484;DHT22;50862;51.642;7.964;2022-08-02T09:31:42;27.20;56.60
64484;DHT22;50862;51.642;7.964;2022-08-02T09:34:16;27.10;57.20
64484;DHT22;50862;51.642;7.964;2022-08-02T09:36:47;27.30;60.20
64484;DHT22;50862;51.642;7.964;2022-08-02T09:39:20;27.50;61.30
64484;DHT22;50862;51.642;7.964;2022-08-02T09:41:49;27.30;56.00
64484;DHT22;50862;51.642;7.964;2022-08-02T09:44:17;27.20;58.00
64484;DHT22;50862;51.642;7.964;2022-08-02T09:46:46;27.40;56.10
64484;DHT22;50862;51.642;7.964;2022-08-02T09:49:15;28.80;55.90
64484;DHT22;50862;51.642;7.964;2022-08-02T09:51:50;24.10;54.30
64484;DHT22;50862;51.642;7.964;2022-08-02T09:54:21;27.30;57.90
64484;DHT22;50862;51.642;7.964;2022-08-02T09:56:51;27.40;57.90
64484;DHT22;50862;51.642;7.964;2022-08-02T09:59:22;27.40;56.80
64484;DHT22;50862;51.642;7.964;2022-08-02T10:01:51;27.30;55.60
64484;DHT22;50862;51.642;7.964;2022-08-02T10:04:29;27.10;54.80
64484;DHT22;50862;51.642;7.964;2022-08-02T10:07:01;27.10;54.40
64484;DHT22;50862;51.642;7.964;2022-08-02T10:09:30;27.20;60.20
64484;DHT22;50862;51.642;7.964;2022-08-02T10:11:59;27.10;54.20
64484;DHT22;50862;51.642;7.964;2022-08-02T10:14:29;27.00;56.40
64484;DHT22;50862;51.642;7.964;2022-08-02T10:16:57;27.30;57.30
64484;DHT22;50862;51.642;7.964;2022-08-02T10:19:25;27.40;56.60
64484;DHT22;50862;51.642;7.964;2022-08-02T10:22:15;27.50;56.80
64484;DHT22;50862;51.642;7.964;2022-08-02T10:24:45;27.80;57.70
64484;DHT22;50862;51.642;7.964;2022-08-02T10:27:16;27.60;59.40
64484;DHT22;50862;51.642;7.964;2022-08-02T10:29:47;27.70;55.60
64484;DHT22;50862;51.642;7.964;2022-08-02T10:32:25;27.70;57.20
64484;DHT22;50862;51.642;7.964;2022-08-02T10:34:56;27.50;59.30
64484;DHT22;50862;51.642;7.964;2022-08-02T10:37:50;27.40;57.90
64484;DHT22;50862;51.642;7.964;2022-08-02T10:40:19;27.30;59.50
64484;DHT22;50862;51.642;7.964;2022-08-02T10:42:53;27.30;57.40
64484;DHT22;50862;51.642;7.964;2022-08-02T10:45:26;27.10;58.10
64484;DHT22;50862;51.642;7.964;2022-08-02T10:47:59;27.10;61.10
64484;DHT22;50862;51.642;7.964;2022-08-02T10:50:53;27.40;57.20
64484;DHT22;50862;51.642;7.964;2022-08-02T10:53:25;27.70;58.90
64484;DHT22;50862;51.642;7.964;2022-08-02T10:55:54;27.70;58.50
64484;DHT22;50862;51.642;7.964;2022-08-02T10:58:23;28.00;58.10
64484;DHT22;50862;51.642;7.964;2022-08-02T11:00:55;28.10;58.00
64484;DHT22;50862;51.642;7.964;2022-08-02T11:03:39;28.30;58.00
64484;DHT22;50862;51.642;7.964;2022-08-02T11:06:09;28.50;55.70
64484;DHT22;50862;51.642;7.964;2022-08-02T11:09:27;28.70;55.30
64484;DHT22;50862;51.642;7.964;2022-08-02T11:12:00;28.60;55.90
64484;DHT22;50862;51.642;7.964;2022-08-02T11:14:31;28.40;55.10
64484;DHT22;50862;51.642;7.964;2022-08-02T11:17:11;28.10;56.10
64484;DHT22;50862;51.642;7.964;2022-08-02T11:20:15;28.10;55.90
64484;DHT22;50862;51.642;7.964;2022-08-02T11:22:46;28.10;57.10
64484;DHT22;50862;51.642;7.964;2022-08-02T11:25:32;28.10;58.10
64484;DHT22;50862;51.642;7.964;2022-08-02T11:28:21;28.40;56.80
64484;DHT22;50862;51.642;7.964;2022-08-02T11:30:59;28.30;56.10
64484;DHT22;50862;51.642;7.964;2022-08-02T11:33:32;28.10;55.90
64484;DHT22;50862;51.642;7.964;2022-08-02T11:36:05;28.40;57.00
64484;DHT22;50862;51.642;7.964;2022-08-02T11:38:33;30.10;56.00
64484;DHT22;50862;51.642;7.964;2022-08-02T11:41:03;28.30;54.60
64484;DHT22;50862;51.642;7.964;2022-08-02T11:43:36;28.30;57.60
64484;DHT22;50862;51.642;7.964;2022-08-02T11:46:12;28.40;56.10
64484;DHT22;50862;51.642;7.964;2022-08-02T11:48:41;28.60;56.50
64484;DHT22;50862;51.642;7.964;2022-08-02T11:51:12;28.50;52.90
64484;DHT22;50862;51.642;7.964;2022-08-02T11:53:47;28.40;53.30
64484;DHT22;50862;51.642;7.964;2022-08-02T11:56:24;28.30;53.90
64484;DHT22;50862;51.642;7.964;2022-08-02T11:59:04;28.40;54.00
64484;DHT22;50862;51.642;7.964;2022-08-02T12:01:33;28.20;54.10
64484;DHT22;50862;51.642;7.964;2022-08-02T12:04:16;28.00;54.40
64484;DHT22;50862;51.642;7.964;2022-08-02T12:06:56;28.10;54.80
64484;DHT22;50862;51.642;7.964;2022-08-02T12:09:26;28.20;54.00
64484;DHT22;50862;51.642;7.964;2022-08-02T12:11:56;28.30;53.70
64484;DHT22;50862;51.642;7.964;2022-08-02T12:14:26;28.30;54.90
64484;DHT22;50862;51.642;7.964;2022-08-02T12:16:55;28.30;54.10
64484;DHT22;50862;51.642;7.964;2022-08-02T12:19:42;28.40;55.00
64484;DHT22;50862;51.642;7.964;2022-08-02T12:22:18;28.50;54.60
64484;DHT22;50862;51.642;7.964;2022-08-02T12:24:55;28.40;53.30
64484;DHT22;50862;51.642;7.964;2022-08-02T12:27:30;28.50;54.70
64484;DHT22;50862;51.642;7.964;2022-08-02T12:30:01;28.70;54.40
64484;DHT22;50862;51.642;7.964;2022-08-02T12:32:29;28.70;53.50
64484;DHT22;50862;51.642;7.964;2022-08-02T12:35:07;28.50;53.90
64484;DHT22;50862;51.642;7.964;2022-08-02T12:37:36;28.30;53.50
64484;DHT22;50862;51.642;7.964;2022-08-02T12:40:21;28.30;55.60
64484;DHT22;50862;51.642;7.964;2022-08-02T12:42:54;28.30;54.70
64484;DHT22;50862;51.642;7.964;2022-08-02T12:45:23;28.40;55.40
64484;DHT22;50862;51.642;7.964;2022-08-02T12:47:53;28.40;57.00
64484;DHT22;50862;51.642;7.964;2022-08-02T12:50:24;28.60;54.60
64484;DHT22;50862;51.642;7.964;2022-08-02T12:53:03;28.70;52.80
64484;DHT22;50862;51.642;7.964;2022-08-02T12:55:33;28.70;54.50
64484;DHT22;50862;51.642;7.964;2022-08-02T12:58:23;28.60;51.00
64484;DHT22;50862;51.642;7.964;2022-08-02T13:00:53;28.40;53.90
64484;DHT22;50862;51.642;7.964;2022-08-02T13:03:21;28.40;54.10
64484;DHT22;50862;51.642;7.964;2022-08-02T13:06:10;28.30;53.30
64484;DHT22;50862;51.642;7.964;2022-08-02T13:08:58;28.40;55.50
64484;DHT22;50862;51.642;7.964;2022-08-02T13:11:26;28.50;55.50
64484;DHT22;50862;51.642;7.964;2022-08-02T13:13:56;28.60;52.50
64484;DHT22;50862;51.642;7.964;2022-08-02T13:16:24;28.50;52.70
64484;DHT22;50862;51.642;7.964;2022-08-02T13:18:57;28.50;52.70
64484;DHT22;50862;51.642;7.964;2022-08-02T13:21:25;28.50;55.60
64484;DHT22;50862;51.642;7.964;2022-08-02T13:24:14;28.50;52.70
64484;DHT22;50862;51.642;7.964;2022-08-02T13:27:02;28.40;54.00
64484;DHT22;50862;51.642;7.964;2022-08-02T13:29:37;28.50;53.40
64484;DHT22;50862;51.642;7.964;2022-08-02T13:32:05;28.50;53.10
64484;DHT22;50862;51.642;7.964;2022-08-02T13:34:34;28.60;53.70
64484;DHT22;50862;51.642;7.964;2022-08-02T13:37:03;28.70;55.00
64484;DHT22;50862;51.642;7.964;2022-08-02T13:39:31;29.00;56.00
64484;DHT22;50862;51.642;7.964;2022-08-02T13:42:03;29.10;53.40
64484;DHT22;50862;51.642;7.964;2022-08-02T13:44:31;29.10;53.50
64484;DHT22;50862;51.642;7.964;2022-08-02T13:47:01;29.00;53.20
64484;DHT22;50862;51.642;7.964;2022-08-02T13:49:30;29.00;53.10
64484;DHT22;50862;51.642;7.964;2022-08-02T13:52:18;28.80;53.70
64484;DHT22;50862;51.642;7.964;2022-08-02T13:54:47;28.80;53.20
64484;DHT22;50862;51.642;7.964;2022-08-02T13:57:15;28.70;53.10
64484;DHT22;50862;51.642;7.964;2022-08-02T13:59:43;28.80;54.10
64484;DHT22;50862;51.642;7.964;2022-08-02T14:02:26;29.00;54.80
64484;DHT22;50862;51.642;7.964;2022-08-02T14:04:55;29.00;56.50
64484;DHT22;50862;51.642;7.964;2022-08-02T14:07:23;29.10;54.80
64484;DHT22;50862;51.642;7.964;2022-08-02T14:09:51;29.10;56.20
64484;DHT22;50862;51.642;7.964;2022-08-02T14:12:19;29.10;54.10
64484;DHT22;50862;51.642;7.964;2022-08-02T14:14:48;29.00;54.20
64484;DHT22;50862;51.642;7.964;2022-08-02T14:17:16;28.80;53.50
64484;DHT22;50862;51.642;7.964;2022-08-02T14:19:46;28.80;54.10
64484;DHT22;50862;51.642;7.964;2022-08-02T14:22:16;28.90;53.90
64484;DHT22;50862;51.642;7.964;2022-08-02T14:24:44;29.00;54.60
64484;DHT22;50862;51.642;7.964;2022-08-02T14:27:12;29.20;53.80
64484;DHT22;50862;51.642;7.964;2022-08-02T14:29:41;29.30;53.70
64484;DHT22;50862;51.642;7.964;2022-08-02T14:32:09;29.40;52.50
64484;DHT22;50862;51.642;7.964;2022-08-02T14:34:39;29.40;55.20
64484;DHT22;50862;51.642;7.964;2022-08-02T14:37:09;29.30;53.80
64484;DHT22;50862;51.642;7.964;2022-08-02T14:39:37;29.40;54.30
64484;DHT22;50862;51.642;7.964;2022-08-02T14:42:25;29.20;52.50
64484;DHT22;50862;51.642;7.964;2022-08-02T14:44:55;28.90;53.30
64484;DHT22;50862;51.642;7.964;2022-08-02T14:47:23;28.70;55.20
64484;DHT22;50862;51.642;7.964;2022-08-02T14:49:51;28.80;56.40
64484;DHT22;50862;51.642;7.964;2022-08-02T14:52:21;28.80;53.50
64484;DHT22;50862;51.642;7.964;2022-08-02T14:54:49;28.30;51.50
64484;DHT22;50862;51.642;7.964;2022-08-02T14:57:19;28.90;54.60
64484;DHT22;50862;51.642;7.964;2022-08-02T14:59:49;29.10;52.90
64484;DHT22;50862;51.642;7.964;2022-08-02T15:02:18;29.30;53.30
64484;DHT22;50862;51.642;7.964;2022-08-02T15:04:46;29.20;51.90
64484;DHT22;50862;51.642;7.964;2022-08-02T15:07:14;29.30;53.10
64484;DHT22;50862;51.642;7.964;2022-08-02T15:09:43;29.30;51.30
64484;DHT22;50862;51.642;7.964;2022-08-02T15:12:12;29.30;52.60
64484;DHT22;50862;51.642;7.964;2022-08-02T15:14:41;29.20;50.90
64484;DHT22;50862;51.642;7.964;2022-08-02T15:17:10;29.10;52.90
64484;DHT22;50862;51.642;7.964;2022-08-02T15:19:38;29.00;52.40
64484;DHT22;50862;51.642;7.964;2022-08-02T15:22:27;29.10;52.90
64484;DHT22;50862;51.642;7.964;2022-08-02T15:24:59;29.20;53.70
64484;DHT22;50862;51.642;7.964;2022-08-02T15:27:27;29.30;52.00
64484;DHT22;50862;51.642;7.964;2022-08-02T15:29:55;29.20;53.00
64484;DHT22;50862;51.642;7.964;2022-08-02T15:32:32;29.30;54.00
64484;DHT22;50862;51.642;7.964;2022-08-02T15:35:00;29.30;53.50
64484;DHT22;50862;51.642;7.964;2022-08-02T15:37:28;29.40;53.50
64484;DHT22;50862;51.642;7.964;2022-08-02T15:40:00;29.40;53.00
64484;DHT22;50862;51.642;7.964;2022-08-02T15:42:28;29.50;52.00
64484;DHT22;50862;51.642;7.964;2022-08-02T15:44:57;29.40;51.20
64484;DHT22;50862;51.642;7.964;2022-08-02T15:47:25;29.70;51.80
64484;DHT22;50862;51.642;7.964;2022-08-02T15:49:54;29.90;51.40
64484;DHT22;50862;51.642;7.964;2022-08-02T15:52:24;30.00;51.80
64484;DHT22;50862;51.642;7.964;2022-08-02T15:54:52;30.20;50.00
64484;DHT22;50862;51.642;7.964;2022-08-02T15:57:22;30.30;49.00
64484;DHT22;50862;51.642;7.964;2022-08-02T15:59:51;30.60;50.00
64484;DHT22;50862;51.642;7.964;2022-08-02T16:02:20;30.40;48.20
64484;DHT22;50862;51.642;7.964;2022-08-02T16:04:48;30.00;48.40
64484;DHT22;50862;51.642;7.964;2022-08-02T16:07:16;30.00;49.40
64484;DHT22;50862;51.642;7.964;2022-08-02T16:09:44;30.00;50.60
64484;DHT22;50862;51.642;7.964;2022-08-02T16:12:12;30.10;50.80
64484;DHT22;50862;51.642;7.964;2022-08-02T16:14:44;30.00;50.60
64484;DHT22;50862;51.642;7.964;2022-08-02T16:17:12;29.90;50.00
64484;DHT22;50862;51.642;7.964;2022-08-02T16:20:00;29.70;48.70
64484;DHT22;50862;51.642;7.964;2022-08-02T16:22:28;29.60;51.00
64484;DHT22;50862;51.642;7.964;2022-08-02T16:24:57;29.40;50.90
64484;DHT22;50862;51.642;7.964;2022-08-02T16:27:25;29.30;52.40
64484;DHT22;50862;51.642;7.964;2022-08-02T16:29:54;29.20;52.70
64484;DHT22;50862;51.642;7.964;2022-08-02T16:32:22;29.30;52.70
64484;DHT22;50862;51.642;7.964;2022-08-02T16:34:51;29.10;51.40
64484;DHT22;50862;51.642;7.964;2022-08-02T16:37:34;28.90;51.60
64484;DHT22;50862;51.642;7.964;2022-08-02T16:40:18;28.80;52.40
64484;DHT22;50862;51.642;7.964;2022-08-02T16:42:46;28.80;51.60
64484;DHT22;50862;51.642;7.964;2022-08-02T16:45:18;28.70;50.90